Time;durP1;ratioP1;P1;durP2;ratioP2;P2;SDS_P1;SDS_P2;PMS_P1;PMS_P2;Temp;Humidity;BMP_temperature;BMP_pressure;BME280_temperature;BME280_humidity;BME280_pressure;Samples;Min_cycle;Max_cycle;Signal;HPM_P1;HPM_P2
2021/08/07 00:02:12;;;;;;;2.55;1.00;;;;;;;17.14;78.23;98562.72;3568214;40;20061;-76
2021/08/07 00:04:40;;;;;;;2.03;1.00;;;;;;;17.15;77.80;98568.81;3576962;40;20083;-76
2021/08/07 00:07:13;;;;;;;2.63;1.30;;;;;;;17.15;77.87;98563.53;3572977;40;20063;-77
2021/08/07 00:09:41;;;;;;;2.20;1.20;;;;;;;17.15;78.07;98574.91;3558577;40;20059;-77
2021/08/07 00:12:09;;;;;;;2.58;1.33;;;;;;;17.10;77.94;98571.84;3575614;40;20049;-76
2021/08/07 00:14:37;;;;;;;2.47;1.10;;;;;;;17.10;78.38;98563.91;3568891;40;20133;-77
2021/08/07 00:17:05;;;;;;;4.28;1.27;;;;;;;17.14;77.92;98578.53;3579048;40;20317;-77
2021/08/07 00:19:32;;;;;;;2.58;1.38;;;;;;;17.11;78.38;98570.88;3574177;40;20063;-77
2021/08/07 00:21:59;;;;;;;1.55;0.90;;;;;;;17.13;78.64;98582.09;3576039;40;20053;-76
2021/08/07 00:24:30;;;;;;;2.17;1.23;;;;;;;17.14;78.67;98567.97;3556912;40;20078;-77
2021/08/07 00:26:59;;;;;;;2.13;0.93;;;;;;;17.16;79.07;98573.94;3574733;40;20299;-77
2021/08/07 00:29:25;;;;;;;2.45;1.40;;;;;;;17.11;78.67;98563.78;3556664;40;20057;-77
2021/08/07 00:31:54;;;;;;;3.23;1.20;;;;;;;17.20;78.85;98566.63;3577725;40;20061;-77
2021/08/07 00:34:21;;;;;;;1.95;1.05;;;;;;;17.20;78.96;98570.09;3571370;40;20860;-77
2021/08/07 00:36:51;;;;;;;1.92;0.90;;;;;;;17.25;78.78;98572.34;3561119;40;20056;-77
2021/08/07 00:39:21;;;;;;;1.63;0.90;;;;;;;17.27;79.59;98568.59;3554491;40;20076;-77
2021/08/07 00:41:51;;;;;;;4.68;1.70;;;;;;;17.30;78.63;98576.28;3563503;40;20060;-76
2021/08/07 00:44:18;;;;;;;3.40;1.40;;;;;;;17.29;78.76;98560.59;3570730;40;20076;-76
2021/08/07 00:46:47;;;;;;;2.80;1.48;;;;;;;17.31;78.90;98564.75;3552649;40;20057;-77
2021/08/07 00:49:15;;;;;;;2.75;1.20;;;;;;;17.35;78.98;98565.34;3564296;40;20061;-77
2021/08/07 00:51:50;;;;;;;3.28;1.52;;;;;;;17.32;78.75;98558.50;3570275;40;20061;-77
2021/08/07 00:54:22;;;;;;;3.53;1.70;;;;;;;17.36;78.68;98567.84;3576203;40;20056;-77
2021/08/07 00:56:54;;;;;;;3.47;1.85;;;;;;;17.37;78.64;98569.50;3551999;40;20125;-77
2021/08/07 00:59:21;;;;;;;2.53;1.25;;;;;;;17.34;78.98;98556.59;3552938;40;20059;-77
2021/08/07 01:01:54;;;;;;;3.60;1.67;;;;;;;17.44;78.60;98567.19;3568840;40;20059;-76
2021/08/07 01:04:34;;;;;;;3.58;1.77;;;;;;;17.44;78.86;98564.56;3563684;40;20260;-77
2021/08/07 01:07:29;;;;;;;7.43;1.27;;;;;;;17.47;79.79;98568.72;3549906;40;20084;-76
2021/08/07 01:10:14;;;;;;;3.40;1.40;;;;;;;17.43;79.45;98562.03;3574580;40;20063;-77
2021/08/07 01:13:15;;;;;;;3.80;1.75;;;;;;;17.49;79.72;98567.63;3563904;40;20056;-77
2021/08/07 01:15:49;;;;;;;4.22;2.13;;;;;;;17.47;78.58;98568.72;3567093;40;20475;-77
2021/08/07 01:18:22;;;;;;;3.58;1.75;;;;;;;17.49;79.03;98566.81;3574551;40;20072;-77
2021/08/07 01:20:54;;;;;;;2.88;1.40;;;;;;;17.44;79.27;98554.00;3561050;40;20123;-77
2021/08/07 01:23:41;;;;;;;2.83;1.20;;;;;;;17.52;79.40;98567.38;3562004;40;20058;-77
2021/08/07 01:26:11;;;;;;;2.95;1.23;;;;;;;17.53;79.22;98562.91;3556072;40;20410;-77
2021/08/07 01:28:46;;;;;;;4.45;1.40;;;;;;;17.49;79.12;98553.63;3545371;40;20077;-78
2021/08/07 01:31:15;;;;;;;2.35;1.10;;;;;;;17.49;79.40;98550.97;3564478;40;20053;-77
2021/08/07 01:33:46;;;;;;;2.85;1.45;;;;;;;17.52;79.18;98553.34;3576222;40;20057;-77
2021/08/07 01:36:21;;;;;;;4.43;1.83;;;;;;;17.55;79.21;98555.72;3564451;40;20065;-77
2021/08/07 01:38:52;;;;;;;3.90;1.88;;;;;;;17.56;78.82;98562.66;3571613;40;20208;-77
2021/08/07 01:41:22;;;;;;;5.05;2.25;;;;;;;17.57;79.44;98548.50;3563915;40;20085;-77
2021/08/07 01:44:07;;;;;;;3.90;1.48;;;;;;;17.59;79.18;98552.69;3562247;40;20162;-77
2021/08/07 01:46:51;;;;;;;2.28;1.15;;;;;;;17.61;79.64;98556.03;3567371;40;20135;-77
2021/08/07 01:49:53;;;;;;;4.80;2.10;;;;;;;17.67;79.59;98562.56;3557439;40;21080;-77
2021/08/07 01:52:27;;;;;;;4.95;1.75;;;;;;;17.67;79.70;98553.81;3553864;40;20078;-77
2021/08/07 01:55:11;;;;;;;3.05;1.60;;;;;;;17.67;79.51;98562.56;3561607;40;20061;-77
2021/08/07 01:57:59;;;;;;;3.85;1.88;;;;;;;17.67;79.73;98559.94;3553011;40;20079;-77
2021/08/07 02:00:27;;;;;;;2.55;1.65;;;;;;;17.60;79.36;98557.00;3548051;40;20064;-77
2021/08/07 02:02:57;;;;;;;2.55;1.48;;;;;;;17.61;79.08;98555.19;3561180;40;20062;-77
2021/08/07 02:05:30;;;;;;;5.05;2.30;;;;;;;17.62;78.89;98562.97;3569163;40;20509;-77
2021/08/07 02:08:01;;;;;;;4.38;1.80;;;;;;;17.66;79.38;98562.72;3560521;40;20520;-77
2021/08/07 02:10:35;;;;;;;3.22;1.50;;;;;;;17.60;79.45;98550.88;3544792;40;20061;-77
2021/08/07 02:13:06;;;;;;;3.67;1.75;;;;;;;17.68;79.38;98558.13;3567691;40;20449;-77
2021/08/07 02:15:36;;;;;;;6.13;2.50;;;;;;;17.62;79.61;98541.03;3555855;40;20155;-77
2021/08/07 02:18:11;;;;;;;4.45;2.15;;;;;;;17.64;79.28;98545.22;3537638;40;20069;-77
2021/08/07 02:20:43;;;;;;;3.95;1.75;;;;;;;17.69;79.46;98555.38;3568025;40;20076;-77
2021/08/07 02:23:14;;;;;;;4.75;2.45;;;;;;;17.71;79.24;98561.34;3546386;40;20038;-77
2021/08/07 02:25:45;;;;;;;4.95;2.15;;;;;;;17.64;79.11;98549.66;3551845;40;20439;-77
2021/08/07 02:28:20;;;;;;;2.13;1.30;;;;;;;17.67;79.62;98554.66;3559871;40;20058;-77
2021/08/07 02:30:50;;;;;;;2.65;1.50;;;;;;;17.65;79.40;98546.03;3562328;40;20075;-77
2021/08/07 02:33:23;;;;;;;6.25;2.40;;;;;;;17.66;78.80;98553.00;3573338;40;20106;-77
2021/08/07 02:35:54;;;;;;;6.47;2.70;;;;;;;17.63;79.44;98553.25;3562545;40;20048;-77
2021/08/07 02:38:27;;;;;;;3.83;1.60;;;;;;;17.63;79.48;98554.06;3548651;40;20419;-76
2021/08/07 02:40:56;;;;;;;3.08;1.58;;;;;;;17.63;79.40;98555.88;3559592;40;20109;-76
2021/08/07 02:43:31;;;;;;;5.75;1.73;;;;;;;17.60;79.30;98548.25;3569747;40;20061;-77
2021/08/07 02:45:59;;;;;;;3.42;1.45;;;;;;;17.58;79.65;98550.16;3541181;40;20834;-76
2021/08/07 02:48:31;;;;;;;4.07;1.85;;;;;;;17.62;79.65;98556.84;3559789;40;20077;-77
2021/08/07 02:51:00;;;;;;;3.60;2.05;;;;;;;17.61;79.54;98560.47;3559357;40;20064;-77
2021/08/07 02:53:34;;;;;;;2.75;1.50;;;;;;;17.59;79.80;98559.78;3549830;40;20068;-77
2021/08/07 02:56:02;;;;;;;4.55;2.55;;;;;;;17.62;79.11;98567.41;3569660;40;20072;-77
2021/08/07 02:58:30;;;;;;;4.68;2.03;;;;;;;17.63;79.19;98563.81;3558315;40;20346;-77
2021/08/07 03:00:57;;;;;;;4.93;2.38;;;;;;;17.59;79.14;98557.13;3547548;40;20068;-76
2021/08/07 03:03:28;;;;;;;4.90;2.17;;;;;;;17.61;79.00;98557.84;3555577;40;20148;-77
2021/08/07 03:05:56;;;;;;;5.05;2.40;;;;;;;17.63;79.22;98561.16;3546707;40;20123;-76
2021/08/07 03:08:24;;;;;;;3.28;1.60;;;;;;;17.63;79.59;98555.88;3561712;40;20059;-77
2021/08/07 03:10:57;;;;;;;7.93;2.30;;;;;;;17.63;79.62;98556.72;3548107;40;20061;-77
2021/08/07 03:13:26;;;;;;;4.38;2.08;;;;;;;17.62;79.40;98552.41;3562284;40;20426;-76
2021/08/07 03:15:54;;;;;;;5.10;2.03;;;;;;;17.63;79.39;98553.25;3562953;40;20055;-77
2021/08/07 03:18:26;;;;;;;3.05;1.42;;;;;;;17.61;79.41;98553.38;3567835;40;20061;-77
2021/08/07 03:20:57;;;;;;;5.80;2.65;;;;;;;17.64;78.96;98549.66;3561717;40;20835;-77
2021/08/07 03:23:31;;;;;;;;;;;;;;;17.71;80.31;98550.78;3552499;40;20057;-76
2021/08/07 03:26:03;;;;;;;3.38;1.60;;;;;;;17.69;79.64;98557.16;3558562;40;19964;-77
2021/08/07 03:28:30;;;;;;;6.28;2.33;;;;;;;17.62;79.03;98547.13;3549174;40;20073;-77
2021/08/07 03:31:02;;;;;;;;;;;;;;;17.72;80.07;98552.47;3563608;40;20490;-77
2021/08/07 03:33:36;;;;;;;5.55;2.60;;;;;;;17.70;78.77;98564.13;3555943;40;20659;-77
2021/08/07 03:36:08;;;;;;;6.55;2.63;;;;;;;17.64;79.08;98545.22;3559713;40;20140;-77
2021/08/07 03:38:37;;;;;;;6.53;2.85;;;;;;;17.61;79.20;98542.00;3567957;40;21132;-77
2021/08/07 03:41:04;;;;;;;6.38;3.28;;;;;;;17.60;78.83;98546.44;3562892;40;20049;-77
2021/08/07 03:43:46;;;;;;;5.93;2.47;;;;;;;17.67;79.90;98545.91;3567610;40;20065;-77
2021/08/07 03:46:19;;;;;;;6.15;2.85;;;;;;;17.63;79.24;98547.97;3545274;40;20059;-77
2021/08/07 03:48:48;;;;;;;6.28;2.80;;;;;;;17.61;79.35;98542.00;3570190;40;20121;-77
2021/08/07 03:51:19;;;;;;;6.45;2.28;;;;;;;17.63;79.21;98547.97;3572722;40;20073;-77
2021/08/07 03:53:46;;;;;;;5.97;3.33;;;;;;;17.61;79.06;98549.91;3569426;40;20063;-77
2021/08/07 03:56:22;;;;;;;8.70;3.80;;;;;;;17.61;78.77;98544.63;3543531;40;20512;-77
2021/08/07 03:58:53;;;;;;;6.65;3.00;;;;;;;17.59;79.44;98542.13;3573919;40;20045;-77
2021/08/07 04:01:26;;;;;;;5.72;2.63;;;;;;;17.59;79.29;98546.59;3563616;40;20504;-77
2021/08/07 04:03:58;;;;;;;8.55;3.05;;;;;;;17.57;79.39;98544.06;3569805;40;20054;-77
2021/08/07 04:06:38;;;;;;;8.77;3.67;;;;;;;17.60;79.34;98542.97;3556482;40;20061;-77
2021/08/07 04:09:09;;;;;;;9.55;3.78;;;;;;;17.56;79.00;98539.75;3561124;40;20053;-77
2021/08/07 04:11:37;;;;;;;7.47;3.58;;;;;;;17.55;78.92;98539.88;3565640;40;20147;-77
2021/08/07 04:14:09;;;;;;;9.10;4.28;;;;;;;17.60;78.95;98545.59;3556428;40;20058;-77
2021/08/07 04:16:38;;;;;;;7.45;3.38;;;;;;;17.57;79.02;98544.06;3563478;40;20450;-77
2021/08/07 04:19:20;;;;;;;6.60;3.38;;;;;;;17.58;79.32;98550.16;3557470;40;20341;-77
2021/08/07 04:21:53;;;;;;;8.85;3.75;;;;;;;17.60;79.37;98548.25;3556949;40;20064;-77
2021/08/07 04:24:26;;;;;;;6.90;3.33;;;;;;;17.55;79.66;98539.88;3562185;40;20057;-77
2021/08/07 04:27:00;;;;;;;8.23;4.00;;;;;;;17.58;79.60;98544.88;3562683;40;20536;-77
2021/08/07 04:29:27;;;;;;;9.73;4.95;;;;;;;17.59;78.40;98562.41;3560277;40;20069;-77
2021/08/07 04:31:57;;;;;;;7.90;3.90;;;;;;;17.58;79.38;98550.16;3572390;40;20065;-76
2021/08/07 04:34:24;;;;;;;10.43;5.00;;;;;;;17.55;79.87;98548.63;3564278;40;20060;-77
2021/08/07 04:36:52;;;;;;;;;;;;;;;17.68;80.13;98564.25;3551314;40;20076;-76
2021/08/07 04:39:27;;;;;;;6.15;2.75;;;;;;;17.63;80.56;98559.34;3569794;40;20301;-77
2021/08/07 04:41:58;;;;;;;7.18;3.78;;;;;;;17.60;79.90;98553.53;3562053;40;20085;-77
2021/08/07 04:44:25;;;;;;;8.38;3.75;;;;;;;17.54;79.81;98543.50;3565622;40;20045;-77
2021/08/07 04:47:17;;;;;;;11.73;4.10;;;;;;;17.59;80.42;98563.25;3548396;40;20115;-77
2021/08/07 04:49:45;;;;;;;7.97;3.72;;;;;;;17.54;80.09;98559.34;3560886;40;20272;-77
2021/08/07 04:52:13;;;;;;;5.07;2.33;;;;;;;17.49;80.79;98553.63;3567838;40;20062;-77
2021/08/07 04:54:42;;;;;;;9.67;4.00;;;;;;;17.47;80.01;98551.09;3575658;40;20064;-77
2021/08/07 04:57:09;;;;;;;9.55;4.00;;;;;;;17.43;80.33;98559.38;3549909;40;20069;-77
2021/08/07 04:59:36;;;;;;;5.72;3.00;;;;;;;17.42;80.76;98549.81;3571504;40;20052;-77
2021/08/07 05:02:04;;;;;;;6.63;2.80;;;;;;;17.36;80.37;98543.25;3569446;40;20086;-77
2021/08/07 05:04:31;;;;;;;7.70;3.78;;;;;;;17.40;80.42;98562.31;3557117;40;20072;-76
2021/08/07 05:06:58;;;;;;;7.20;3.43;;;;;;;17.38;80.11;98563.25;3578037;40;20059;-77
2021/08/07 05:09:29;;;;;;;5.30;2.53;;;;;;;17.41;80.66;98569.25;3572867;40;20545;-77
2021/08/07 05:12:24;;;;;;;6.97;2.85;;;;;;;17.38;80.80;98565.88;3557524;40;20073;-77
2021/08/07 05:14:51;;;;;;;7.07;3.67;;;;;;;17.36;80.32;98567.84;3540742;40;20061;-77
2021/08/07 05:17:20;;;;;;;6.32;2.90;;;;;;;17.39;80.56;98572.03;3567910;40;20406;-77
2021/08/07 05:19:48;;;;;;;8.65;3.70;;;;;;;17.36;80.42;98569.63;3558847;40;20061;-77
2021/08/07 05:22:15;;;;;;;8.25;4.10;;;;;;;17.37;79.94;98574.78;3570179;40;20057;-77
2021/08/07 05:24:49;;;;;;;8.23;3.67;;;;;;;17.30;80.02;98563.09;3564932;40;20061;-77
2021/08/07 05:27:18;;;;;;;6.15;3.13;;;;;;;17.30;80.27;98563.09;3553133;40;20063;-77
2021/08/07 05:29:48;;;;;;;9.95;3.55;;;;;;;17.31;80.02;98572.66;3568925;40;20131;-77
2021/08/07 05:32:16;;;;;;;8.00;3.75;;;;;;;17.28;80.41;98575.53;3572154;40;20064;-76
2021/08/07 05:34:52;;;;;;;6.65;2.97;;;;;;;17.31;80.16;98575.31;3547488;40;20139;-77
2021/08/07 05:37:22;;;;;;;7.40;3.60;;;;;;;17.29;80.11;98585.16;3560448;40;20057;-77
2021/08/07 05:39:51;;;;;;;7.57;3.72;;;;;;;17.27;80.62;98583.59;3568572;40;20128;-76
2021/08/07 05:42:18;;;;;;;8.18;4.50;;;;;;;17.25;80.03;98581.09;3548175;40;20054;-76
2021/08/07 05:44:45;;;;;;;6.90;3.38;;;;;;;17.23;80.35;98582.19;3563069;40;20735;-77
2021/08/07 05:47:12;;;;;;;9.60;3.78;;;;;;;17.22;80.28;98585.78;3539140;40;20065;-77
2021/08/07 05:49:39;;;;;;;7.57;4.07;;;;;;;17.20;81.07;98587.72;3562750;40;20083;-76
2021/08/07 05:52:10;;;;;;;7.88;4.18;;;;;;;17.17;81.24;98588.81;3557668;40;20068;-77
2021/08/07 05:54:37;;;;;;;7.40;3.50;;;;;;;17.14;81.08;98583.81;3560416;40;20087;-77
2021/08/07 05:57:05;;;;;;;;;;;;;;;17.20;80.86;98593.84;3570123;40;20294;-77
2021/08/07 05:59:35;;;;;;;7.10;3.45;;;;;;;17.13;80.94;98587.38;3557777;40;19933;-76
2021/08/07 06:02:05;;;;;;;8.57;4.30;;;;;;;17.10;80.98;98585.84;3554055;40;20057;-77
2021/08/07 06:04:34;;;;;;;7.97;4.20;;;;;;;17.05;80.97;98581.94;3553280;40;20054;-77
2021/08/07 06:07:04;;;;;;;7.78;3.83;;;;;;;17.03;81.03;98587.34;3563215;40;20065;-77
2021/08/07 06:09:33;;;;;;;8.75;3.95;;;;;;;17.03;81.93;98592.63;3572685;40;20076;-77
2021/08/07 06:12:03;;;;;;;7.88;4.25;;;;;;;17.00;81.02;98592.84;3556310;40;20064;-76
2021/08/07 06:14:32;;;;;;;8.57;4.05;;;;;;;17.02;81.60;98601.47;3564575;40;20065;-77
2021/08/07 06:17:00;;;;;;;9.18;4.10;;;;;;;16.97;81.35;98597.53;3566796;40;20049;-77
2021/08/07 06:19:28;;;;;;;10.07;4.78;;;;;;;17.02;81.02;98595.34;3573094;40;20077;-77
2021/08/07 06:21:57;;;;;;;11.88;5.40;;;;;;;16.97;81.12;98592.25;3546920;40;20116;-77
2021/08/07 06:24:31;;;;;;;7.82;3.55;;;;;;;16.98;81.25;98588.66;3562381;40;20627;-77
2021/08/07 06:26:58;;;;;;;10.80;4.70;;;;;;;16.98;81.15;98586.00;3563300;40;20054;-77
2021/08/07 06:29:25;;;;;;;10.63;4.93;;;;;;;16.97;81.14;98584.34;3573038;40;20084;-77
2021/08/07 06:31:52;;;;;;;11.85;5.22;;;;;;;16.96;81.30;98587.97;3570817;40;20084;-76
2021/08/07 06:34:19;;;;;;;12.13;4.67;;;;;;;16.98;81.06;98588.66;3572581;40;20065;-77
2021/08/07 06:36:46;;;;;;;10.93;5.57;;;;;;;16.97;80.45;98597.53;3570603;40;20287;-77
2021/08/07 06:39:13;;;;;;;9.07;4.55;;;;;;;16.96;80.88;98588.78;3574656;40;20414;-77
2021/08/07 06:41:41;;;;;;;9.60;5.00;;;;;;;17.00;81.23;98600.75;3552263;40;20061;-77
2021/08/07 06:44:19;;;;;;;9.85;4.07;;;;;;;16.99;81.32;98588.56;3553246;40;20060;-76
2021/08/07 06:46:48;;;;;;;10.13;4.35;;;;;;;17.01;81.61;98593.69;3576824;40;20045;-77
2021/08/07 06:49:15;;;;;;;13.10;4.65;;;;;;;17.02;81.28;98590.91;3570156;40;20171;-76
2021/08/07 06:51:48;;;;;;;7.63;3.40;;;;;;;17.06;81.64;98592.34;3561242;40;20069;-77
2021/08/07 06:54:17;;;;;;;10.05;4.63;;;;;;;17.08;81.57;98600.13;3562523;40;20057;-77
2021/08/07 06:56:48;;;;;;;10.05;4.20;;;;;;;17.08;81.21;98600.13;3570918;40;20095;-77
2021/08/07 06:59:15;;;;;;;11.23;4.63;;;;;;;17.08;80.96;98600.13;3570782;40;20060;-76
2021/08/07 07:01:44;;;;;;;;;;;;;;;17.19;81.80;98597.44;3573793;40;20053;-77
2021/08/07 07:04:13;;;;;;;7.90;3.65;;;;;;;17.12;81.06;98594.47;3572129;40;19980;-75
2021/08/07 07:06:41;;;;;;;9.48;4.22;;;;;;;17.16;80.60;98596.84;3564389;40;20063;-77
2021/08/07 07:09:13;;;;;;;8.68;3.88;;;;;;;17.20;80.92;98606.19;3563245;40;20049;-77
2021/08/07 07:11:41;;;;;;;8.32;3.58;;;;;;;17.18;80.74;98606.28;3557716;40;20056;-77
2021/08/07 07:14:07;;;;;;;7.72;3.65;;;;;;;17.18;80.67;98598.38;3574131;40;20158;-77
2021/08/07 07:16:35;;;;;;;9.67;4.17;;;;;;;17.19;80.50;98599.25;3573864;40;20134;-77
2021/08/07 07:19:03;;;;;;;8.13;3.22;;;;;;;17.23;80.72;98604.09;3558245;40;20054;-77
2021/08/07 07:21:30;;;;;;;9.00;3.78;;;;;;;17.27;81.02;98608.16;3558189;40;20462;-77
2021/08/07 07:23:58;;;;;;;9.90;4.55;;;;;;;17.33;80.53;98612.94;3553425;40;20087;-77
2021/08/07 07:26:28;;;;;;;10.50;3.95;;;;;;;17.41;80.84;98614.09;3576634;40;20064;-77
2021/08/07 07:28:57;;;;;;;10.40;3.92;;;;;;;17.40;80.56;98615.06;3569659;40;20068;-77
2021/08/07 07:31:24;;;;;;;8.40;3.92;;;;;;;17.43;79.74;98615.63;3563229;40;20057;-77
2021/08/07 07:33:57;;;;;;;11.93;4.40;;;;;;;17.49;80.14;98628.34;3555088;40;20060;-77
2021/08/07 07:36:26;;;;;;;6.93;3.10;;;;;;;17.49;80.20;98624.88;3564424;40;20154;-76
2021/08/07 07:38:54;;;;;;;7.03;3.75;;;;;;;17.47;80.15;98616.22;3552276;40;20057;-77
2021/08/07 07:41:21;;;;;;;8.85;3.53;;;;;;;17.50;79.75;98621.25;3570521;40;21090;-77
2021/08/07 07:43:49;;;;;;;10.05;4.22;;;;;;;17.51;79.27;98612.38;3570719;40;20059;-77
2021/08/07 07:46:16;;;;;;;9.95;4.10;;;;;;;17.54;78.76;98622.66;3563793;40;20143;-77
2021/08/07 07:48:47;;;;;;;7.50;4.05;;;;;;;17.56;79.66;98613.66;3572356;40;20045;-76
2021/08/07 07:51:14;;;;;;;8.00;3.65;;;;;;;17.55;79.44;98611.16;3552417;40;20072;-77
2021/08/07 07:53:42;;;;;;;9.15;3.92;;;;;;;17.61;79.66;98613.25;3574891;40;20049;-76
2021/08/07 07:56:08;;;;;;;11.48;4.35;;;;;;;17.68;79.88;98619.66;3543794;40;20076;-77
2021/08/07 07:58:38;;;;;;;7.53;3.28;;;;;;;17.71;79.76;98611.50;3562326;40;24184;-77
2021/08/07 08:01:05;;;;;;;9.40;3.80;;;;;;;17.80;79.67;98618.69;3546457;40;20069;-77
2021/08/07 08:03:33;;;;;;;7.55;3.80;;;;;;;17.88;79.61;98621.47;3570889;40;20054;-77
2021/08/07 08:06:01;;;;;;;9.68;3.78;;;;;;;17.95;79.28;98616.53;3565024;40;20056;-77
2021/08/07 08:08:30;;;;;;;9.55;4.00;;;;;;;18.02;78.12;98616.81;3558035;40;20552;-77
2021/08/07 08:10:57;;;;;;;9.75;4.93;;;;;;;18.06;77.50;98621.72;3560901;40;20045;-77
2021/08/07 08:13:24;;;;;;;5.75;2.85;;;;;;;18.10;78.25;98619.66;3564865;40;20067;-77
2021/08/07 08:15:52;;;;;;;9.27;3.83;;;;;;;18.17;77.90;98612.84;3564460;40;20130;-77
2021/08/07 08:18:23;;;;;;;9.80;3.58;;;;;;;18.26;77.34;98619.97;3555159;40;20064;-77
2021/08/07 08:20:52;;;;;;;7.18;3.42;;;;;;;18.34;78.62;98622.75;3565825;40;20064;-76
2021/08/07 08:23:21;;;;;;;8.13;3.00;;;;;;;18.33;77.24;98609.69;3563026;40;20080;-77
2021/08/07 08:25:49;;;;;;;7.82;3.85;;;;;;;18.41;76.70;98617.78;3557949;40;20067;-77
2021/08/07 08:28:17;;;;;;;6.63;2.67;;;;;;;18.45;76.25;98618.34;3567896;40;20650;-77
2021/08/07 08:30:44;;;;;;;;;;;;;;;18.60;80.52;98622.25;3564437;40;20064;-77
2021/08/07 08:33:12;;;;;;;6.65;2.50;;;;;;;18.55;75.60;98613.91;3556263;40;20050;-76
2021/08/07 08:35:41;;;;;;;7.95;3.17;;;;;;;18.60;75.34;98612.56;3562140;40;20048;-77
2021/08/07 08:38:11;;;;;;;7.28;2.58;;;;;;;18.66;75.61;98619.09;3556957;40;20089;-76
2021/08/07 08:40:41;;;;;;;5.78;2.50;;;;;;;18.73;76.58;98606.19;3561761;40;20073;-77
2021/08/07 08:43:10;;;;;;;7.03;2.83;;;;;;;18.79;76.02;98606.47;3555887;40;20065;-76
2021/08/07 08:45:38;;;;;;;7.63;3.00;;;;;;;18.87;76.08;98603.97;3570434;40;20465;-77
2021/08/07 08:48:06;;;;;;;;;;;;;;;19.11;81.09;98615.94;3560727;40;20142;-77
2021/08/07 08:50:33;;;;;;;7.07;3.03;;;;;;;19.14;74.42;98613.00;3548848;40;19948;-77
2021/08/07 08:53:01;;;;;;;5.50;2.70;;;;;;;19.28;74.50;98604.66;3569190;40;20068;-77
2021/08/07 08:55:31;;;;;;;7.72;2.63;;;;;;;19.37;73.08;98609.09;3550558;40;20097;-77
2021/08/07 08:58:02;;;;;;;6.45;3.03;;;;;;;19.41;72.12;98610.50;3569160;40;20060;-77
2021/08/07 09:00:30;;;;;;;6.50;2.92;;;;;;;19.47;72.35;98605.59;3558373;40;20207;-77
2021/08/07 09:02:57;;;;;;;7.75;3.05;;;;;;;19.44;75.30;98610.19;3560982;40;20070;-77
2021/08/07 09:05:25;;;;;;;5.00;2.30;;;;;;;19.43;72.20;98613.00;3568391;40;20056;-77
2021/08/07 09:07:52;;;;;;;4.60;2.13;;;;;;;19.37;71.73;98606.47;3546489;40;20049;-77
2021/08/07 09:10:24;;;;;;;8.40;2.85;;;;;;;19.42;72.56;98613.97;3559094;40;20061;-77
2021/08/07 09:13:00;;;;;;;5.63;2.33;;;;;;;19.41;73.08;98609.63;3554564;40;20081;-77
2021/08/07 09:15:37;;;;;;;7.95;3.15;;;;;;;19.46;73.24;98615.34;3546746;40;20065;-77
2021/08/07 09:18:24;;;;;;;8.18;3.08;;;;;;;19.50;74.83;98607.97;3541404;40;20088;-77
2021/08/07 09:21:14;;;;;;;7.10;2.72;;;;;;;19.52;75.18;98598.06;3552505;40;20096;-77
2021/08/07 09:24:07;;;;;;;7.25;2.75;;;;;;;19.56;73.74;98599.44;3547705;40;20061;-77
2021/08/07 09:26:40;;;;;;;5.03;2.55;;;;;;;19.46;71.66;98599.44;3543192;40;20081;-77
2021/08/07 09:29:07;;;;;;;6.00;2.88;;;;;;;19.40;72.05;98592.91;3565255;40;20095;-78
2021/08/07 09:31:57;;;;;;;6.28;2.50;;;;;;;19.52;75.35;98593.63;3558758;40;20068;-77
2021/08/07 09:34:24;;;;;;;5.88;2.28;;;;;;;19.48;71.09;98602.81;3553180;40;20053;-77
2021/08/07 09:36:56;;;;;;;4.80;2.13;;;;;;;19.54;73.86;98604.06;3554613;40;20580;-76
2021/08/07 09:39:42;;;;;;;6.95;2.58;;;;;;;19.62;75.09;98597.09;3561613;40;20150;-77
2021/08/07 09:42:27;;;;;;;5.57;2.78;;;;;;;19.56;71.91;98615.31;3571152;40;20057;-77
2021/08/07 09:45:00;;;;;;;4.68;2.40;;;;;;;19.59;73.10;98599.16;3562566;40;20064;-77
2021/08/07 09:47:32;;;;;;;5.20;2.60;;;;;;;19.45;72.74;98588.03;3565057;40;20057;-77
2021/08/07 09:50:01;;;;;;;5.63;2.45;;;;;;;19.38;74.15;98588.75;3571307;40;20382;-77
2021/08/07 09:52:37;;;;;;;7.00;2.58;;;;;;;19.25;74.42;98586.41;3559007;40;20064;-78
2021/08/07 09:55:06;;;;;;;4.50;1.95;;;;;;;19.05;75.12;98568.88;3562448;40;20326;-78
2021/08/07 09:57:35;;;;;;;4.18;1.83;;;;;;;18.84;75.68;98588.38;3565390;40;20068;-79
2021/08/07 10:00:03;;;;;;;5.65;2.00;;;;;;;18.60;75.19;98580.84;3570657;40;20049;-79
2021/08/07 10:02:42;;;;;;;3.78;1.75;;;;;;;18.40;75.91;98592.34;3560503;40;20107;-79
2021/08/07 10:05:24;;;;;;;4.88;2.15;;;;;;;18.17;76.15;98589.06;3582175;40;20037;-79
2021/08/07 10:08:03;;;;;;;5.85;2.05;;;;;;;18.05;77.44;98600.72;3567439;40;20100;-79
2021/08/07 10:10:50;;;;;;;4.95;2.10;;;;;;;17.81;78.43;98609.78;3573058;40;20045;-77
2021/08/07 10:13:29;;;;;;;4.85;1.70;;;;;;;17.68;78.05;98598.56;3557258;40;20141;-76
2021/08/07 10:16:08;;;;;;;5.05;2.10;;;;;;;17.52;79.09;98591.13;3562310;40;20060;-77
2021/08/07 10:18:41;;;;;;;5.20;1.85;;;;;;;17.34;80.02;98587.41;3559808;40;20059;-77
2021/08/07 10:21:10;;;;;;;4.45;1.90;;;;;;;17.19;80.69;98571.06;3568806;40;20069;-77
2021/08/07 10:23:40;;;;;;;4.28;1.58;;;;;;;17.14;81.20;98583.81;3576388;40;20311;-77
2021/08/07 10:26:16;;;;;;;6.22;2.10;;;;;;;17.07;81.21;98577.34;3574509;40;20046;-77
2021/08/07 10:28:52;;;;;;;4.00;1.73;;;;;;;16.98;81.61;98593.94;3559286;40;20049;-78
2021/08/07 10:31:27;;;;;;;10.52;1.95;;;;;;;16.93;81.59;98591.69;3566020;40;20060;-77
2021/08/07 10:34:01;;;;;;;3.75;1.55;;;;;;;16.86;81.57;98596.63;3556495;40;20049;-77
2021/08/07 10:36:36;;;;;;;5.45;1.80;;;;;;;16.80;81.27;98594.50;3564955;40;20065;-77
2021/08/07 10:39:06;;;;;;;12.07;2.25;;;;;;;16.74;82.36;98602.91;3560419;40;20057;-76
2021/08/07 10:41:37;;;;;;;3.53;1.60;;;;;;;16.70;82.52;98606.72;3573136;40;20687;-77
2021/08/07 10:44:05;;;;;;;4.25;1.63;;;;;;;16.63;83.12;98595.00;3572047;40;20061;-77
2021/08/07 10:46:40;;;;;;;4.88;1.77;;;;;;;16.58;82.79;98597.19;3573472;40;20073;-77
2021/08/07 10:49:08;;;;;;;3.25;1.58;;;;;;;16.49;82.88;98592.66;3574634;40;20076;-77
2021/08/07 10:51:37;;;;;;;3.85;1.48;;;;;;;16.47;83.98;98591.91;3565282;40;20564;-77
2021/08/07 10:54:26;;;;;;;3.80;1.58;;;;;;;16.53;83.98;98609.88;3563573;40;20121;-77
2021/08/07 10:57:03;;;;;;;3.47;1.60;;;;;;;16.49;83.61;98603.19;3548460;40;20093;-77
2021/08/07 10:59:39;;;;;;;6.10;1.73;;;;;;;16.50;83.55;98594.31;3543663;40;20049;-77
2021/08/07 11:02:19;;;;;;;5.40;1.50;;;;;;;16.46;83.05;98614.78;3561333;40;20063;-77
2021/08/07 11:04:51;;;;;;;4.50;1.60;;;;;;;16.47;83.27;98605.09;3561932;40;20093;-77
2021/08/07 11:07:21;;;;;;;5.28;1.63;;;;;;;16.45;83.89;98604.38;3565522;40;20057;-77
2021/08/07 11:10:03;;;;;;;4.78;1.55;;;;;;;16.43;83.18;98622.97;3563140;40;20069;-77
2021/08/07 11:12:32;;;;;;;3.05;1.30;;;;;;;16.39;84.24;98602.25;3555465;40;20103;-77
2021/08/07 11:15:05;;;;;;;4.40;1.90;;;;;;;16.40;83.65;98601.28;3572491;40;20085;-76
2021/08/07 11:17:37;;;;;;;3.33;1.33;;;;;;;16.40;84.02;98615.28;3556092;40;20077;-76
2021/08/07 11:20:07;;;;;;;3.00;1.58;;;;;;;16.37;84.33;98604.16;3561736;40;20061;-76
2021/08/07 11:22:39;;;;;;;3.80;1.67;;;;;;;16.41;84.50;98608.22;3549943;40;20072;-76
2021/08/07 11:25:10;;;;;;;4.15;2.05;;;;;;;16.42;84.70;98601.97;3573965;40;20150;-77
2021/08/07 11:28:05;;;;;;;4.75;1.88;;;;;;;16.44;84.43;98610.63;3559469;40;20515;-76
2021/08/07 11:30:41;;;;;;;5.25;2.00;;;;;;;16.42;84.17;98612.53;3566518;40;20169;-77
2021/08/07 11:33:11;;;;;;;6.55;1.60;;;;;;;16.43;84.13;98608.97;3561510;40;20061;-77
2021/08/07 11:35:38;;;;;;;4.80;1.65;;;;;;;16.42;84.23;98610.72;3576239;40;20057;-77
2021/08/07 11:38:05;;;;;;;4.38;1.77;;;;;;;16.44;84.21;98618.53;3575371;40;20604;-77
2021/08/07 11:40:47;;;;;;;5.15;2.00;;;;;;;16.43;84.36;98604.53;3569924;40;20541;-77
2021/08/07 11:43:18;;;;;;;4.20;1.55;;;;;;;16.44;84.37;98613.25;3563602;40;20056;-77
2021/08/07 11:45:46;;;;;;;3.80;1.70;;;;;;;16.42;84.78;98617.78;3575019;40;20479;-77
2021/08/07 11:48:25;;;;;;;4.25;2.03;;;;;;;16.45;84.59;98623.66;3576200;40;20302;-77
2021/08/07 11:51:01;;;;;;;6.05;2.20;;;;;;;16.47;84.62;98626.16;3562750;40;20073;-77
2021/08/07 11:53:59;;;;;;;4.05;1.75;;;;;;;16.50;84.52;98628.56;3561132;40;20077;-77
2021/08/07 11:56:26;;;;;;;;;;;;;;;16.52;84.03;98629.28;3575684;40;20065;-77